createdAt,value
2022-09-10T00:00:58.169Z,100367.15
2022-09-10T00:01:58.443Z,100366.48
2022-09-10T00:02:57.922Z,100365.76
2022-09-10T00:03:58.603Z,100370.42
2022-09-10T00:04:57.813Z,100367.98
2022-09-10T00:05:57.833Z,100368.78
2022-09-10T00:06:57.864Z,100371.45
2022-09-10T00:07:57.817Z,100370.18
2022-09-10T00:08:58.577Z,100367.15
2022-09-10T00:09:57.877Z,100369.59
2022-09-10T00:11:02.882Z,100364.94
2022-09-10T00:11:59.109Z,100363.3
2022-09-10T00:12:59.077Z,100359.48
2022-09-10T00:14:00.017Z,100358.02
2022-09-10T00:14:59.102Z,100366.44
2022-09-10T00:16:01.114Z,100364.35
2022-09-10T00:16:59.160Z,100364.2
2022-09-10T00:17:59.273Z,100364.39
2022-09-10T00:19:00.676Z,100366.38
2022-09-10T00:19:59.209Z,100365.98
2022-09-10T00:20:59.432Z,100362.59
2022-09-10T00:21:59.235Z,100366.52
2022-09-10T00:22:59.275Z,100362.12
2022-09-10T00:24:00.623Z,100364.92
2022-09-10T00:24:59.297Z,100368
2022-09-10T00:25:59.302Z,100362.48
2022-09-10T00:26:59.310Z,100366.27
2022-09-10T00:27:59.393Z,100366.02
2022-09-10T00:28:59.352Z,100366.14
2022-09-10T00:29:59.349Z,100366.69
2022-09-10T00:30:59.395Z,100366.69
2022-09-10T00:31:59.424Z,100360.82
2022-09-10T00:32:59.410Z,100361.7
2022-09-10T00:34:00.453Z,100362.19
2022-09-10T00:34:59.442Z,100363.68
2022-09-10T00:35:59.477Z,100363.72
2022-09-10T00:36:59.496Z,100360.84
2022-09-10T00:37:59.790Z,100367.66
2022-09-10T00:39:02.325Z,100365.06
2022-09-10T00:39:59.581Z,100367.75
2022-09-10T00:41:03.579Z,100362.89
2022-09-10T00:41:59.741Z,100370.2
2022-09-10T00:42:59.833Z,100367.56
2022-09-10T00:44:04.113Z,100368.3
2022-09-10T00:45:01.663Z,100371.45
2022-09-10T00:46:00.343Z,100370.77
2022-09-10T00:47:00.325Z,100369.55
2022-09-10T00:48:05.536Z,100369.48
2022-09-10T00:49:03.469Z,100366.75
2022-09-10T00:50:04.696Z,100370.88
2022-09-10T00:51:04.646Z,100368.25
2022-09-10T00:52:02.418Z,100371.72
2022-09-10T00:53:03.681Z,100367.95
2022-09-10T00:54:02.441Z,100372.59
2022-09-10T00:55:02.432Z,100365.38
2022-09-10T00:56:02.070Z,100373.23
2022-09-10T00:58:06.457Z,100369.55
2022-09-10T00:59:07.231Z,100368.74
2022-09-10T01:00:07.060Z,100367.94
2022-09-10T01:01:04.943Z,100369.92
2022-09-10T01:02:04.746Z,100366.08
2022-09-10T01:03:05.432Z,100370.44
2022-09-10T01:04:05.988Z,100369.41
2022-09-10T01:05:05.783Z,100369.73
2022-09-10T01:06:05.281Z,100370.02
2022-09-10T01:07:06.004Z,100374.28
2022-09-10T01:08:05.130Z,100368.04
2022-09-10T01:09:05.487Z,100372.94
2022-09-10T01:10:13.102Z,100369.92
2022-09-10T01:20:45.196Z,100367.95
2022-09-10T01:28:03.820Z,100362.48
2022-09-10T01:29:14.456Z,100357.7
2022-09-10T01:31:11.511Z,100359.56
2022-09-10T01:32:13.912Z,100354.24
2022-09-10T01:35:22.367Z,100352.88
2022-09-10T01:36:16.110Z,100349.2
2022-09-10T01:37:17.337Z,100347.4
2022-09-10T01:39:15.654Z,100348.92
2022-09-10T01:40:14.933Z,100350.35
2022-09-10T01:41:14.141Z,100354.84
2022-09-10T01:42:14.188Z,100355.3
2022-09-10T01:43:14.222Z,100353.5
2022-09-10T01:45:18.866Z,100353.73
2022-09-10T01:55:58.642Z,100343.25
2022-09-10T01:56:59.515Z,100341.69
2022-09-10T01:58:56.872Z,100341.73
2022-09-10T02:02:02.459Z,100334.44
2022-09-10T02:03:05.871Z,100335.2
2022-09-10T02:04:06.272Z,100335.99
2022-09-10T02:05:03.546Z,100334.12
2022-09-10T02:06:02.988Z,100336.19
2022-09-10T02:07:04.273Z,100332.47
2022-09-10T02:08:07.248Z,100331.38
2022-09-10T02:09:05.290Z,100334.47
2022-09-10T02:10:04.657Z,100332
2022-09-10T02:11:04.506Z,100336.62
2022-09-10T02:12:03.709Z,100337.25
2022-09-10T02:13:03.518Z,100332.77
2022-09-10T02:14:03.522Z,100326.73
2022-09-10T02:15:05.130Z,100328
2022-09-10T02:16:05.489Z,100330.54
2022-09-10T02:17:03.937Z,100330.08
2022-09-10T02:18:03.822Z,100329.78
2022-09-10T02:19:04.025Z,100329.55
2022-09-10T02:20:08.015Z,100326.08
2022-09-10T02:21:04.444Z,100328.19
2022-09-10T02:22:04.438Z,100325.6
2022-09-10T02:23:05.307Z,100328.2
2022-09-10T02:24:06.096Z,100324.73
2022-09-10T02:25:04.675Z,100327.05
2022-09-10T02:26:04.459Z,100327.69
2022-09-10T02:27:04.730Z,100326.78
2022-09-10T02:28:05.410Z,100323.61
2022-09-10T02:29:04.409Z,100320.38
2022-09-10T02:30:05.845Z,100325.83
2022-09-10T02:31:04.371Z,100325.08
2022-09-10T02:32:05.154Z,100326.3
2022-09-10T02:33:04.413Z,100323.22
2022-09-10T02:34:04.420Z,100330.03
2022-09-10T02:35:04.746Z,100324.27
2022-09-10T02:36:04.644Z,100325.19
2022-09-10T02:37:04.495Z,100326.66
2022-09-10T02:38:04.500Z,100324.53
2022-09-10T02:39:05.083Z,100326.02
2022-09-10T02:40:04.899Z,100327.66
2022-09-10T02:41:04.515Z,100324.9
2022-09-10T02:42:04.899Z,100321.77
2022-09-10T02:43:04.957Z,100323.67
2022-09-10T02:44:04.686Z,100323.01
2022-09-10T02:45:05.022Z,100320.19
2022-09-10T02:46:05.154Z,100324.03
2022-09-10T02:47:04.675Z,100320.28
2022-09-10T02:48:04.708Z,100320.91
2022-09-10T02:49:04.712Z,100320.78
2022-09-10T02:50:05.534Z,100319.89
2022-09-10T02:51:04.712Z,100318.53
2022-09-10T02:52:04.766Z,100316.88
2022-09-10T02:53:05.457Z,100313.59
2022-09-10T02:54:04.985Z,100313.59
2022-09-10T02:55:05.187Z,100309.55
2022-09-10T02:56:05.198Z,100311.33
2022-09-10T02:57:04.975Z,100312.58
2022-09-10T02:58:04.798Z,100312.88
2022-09-10T02:59:04.937Z,100310.73
2022-09-10T03:00:05.734Z,100309.55
2022-09-10T03:01:08.640Z,100310.14
2022-09-10T03:02:04.963Z,100308.91
2022-09-10T03:03:04.979Z,100304.83
2022-09-10T03:04:05.084Z,100309.06
2022-09-10T03:05:05.762Z,100302.71
2022-09-10T03:06:05.461Z,100307.98
2022-09-10T03:07:05.002Z,100303.15
2022-09-10T03:08:05.974Z,100302.66
2022-09-10T03:09:05.053Z,100301.69
2022-09-10T03:10:05.384Z,100297.58
2022-09-10T03:11:05.396Z,100300.75
2022-09-10T03:12:05.314Z,100301.93
2022-09-10T03:13:05.108Z,100299.67
2022-09-10T03:14:05.221Z,100302.3
2022-09-10T03:15:05.653Z,100298.03
2022-09-10T03:16:05.360Z,100298.91
2022-09-10T03:17:05.185Z,100304.47
2022-09-10T03:18:05.356Z,100297.68
2022-09-10T03:19:05.322Z,100295.98
2022-09-10T03:20:05.672Z,100296.56
2022-09-10T03:22:08.038Z,100299.16
2022-09-10T03:23:07.922Z,100293.79
2022-09-10T03:24:08.774Z,100293.59
2022-09-10T03:25:08.076Z,100296.34
2022-09-10T03:26:08.364Z,100295.2
2022-09-10T03:27:07.952Z,100294.62
2022-09-10T03:28:07.931Z,100291.84
2022-09-10T03:29:07.975Z,100294.86
2022-09-10T03:30:08.742Z,100296.3
2022-09-10T03:31:08.104Z,100298.07
2022-09-10T03:32:08.026Z,100301.83
2022-09-10T03:33:08.069Z,100300.97
2022-09-10T03:34:10.361Z,100301.67
2022-09-10T03:35:08.412Z,100299.1
2022-09-10T03:36:08.491Z,100301.38
2022-09-10T03:37:08.087Z,100301.26
2022-09-10T03:38:08.172Z,100297
2022-09-10T03:39:08.223Z,100296.73
2022-09-10T03:40:08.748Z,100297.2
2022-09-10T03:41:08.643Z,100298.58
2022-09-10T03:42:08.206Z,100294.04
2022-09-10T03:43:08.172Z,100298.88
2022-09-10T03:44:08.407Z,100293.81
2022-09-10T03:45:08.692Z,100295.89
2022-09-10T03:46:08.296Z,100290.61
2022-09-10T03:47:08.282Z,100288.92
2022-09-10T03:48:08.285Z,100293.32
2022-09-10T03:49:08.836Z,100294.47
2022-09-10T03:50:08.737Z,100293.23
2022-09-10T03:51:08.338Z,100299.47
2022-09-10T03:52:08.377Z,100296.22
2022-09-10T03:53:08.342Z,100296.77
2022-09-10T03:54:08.759Z,100292.77
2022-09-10T03:55:08.881Z,100291.41
2022-09-10T03:56:09.476Z,100291.34
2022-09-10T03:57:08.675Z,100291.07
2022-09-10T03:58:08.577Z,100287.22
2022-09-10T03:59:08.435Z,100289.62
2022-09-10T04:00:08.930Z,100288.93
2022-09-10T04:01:08.487Z,100295.27
2022-09-10T04:02:08.882Z,100295.75
2022-09-10T04:03:08.721Z,100294.7
2022-09-10T04:04:08.522Z,100295.39
2022-09-10T04:05:09.451Z,100292.97
2022-09-10T04:06:11.696Z,100297.95
2022-09-10T04:07:09.668Z,100293.89
2022-09-10T04:08:08.961Z,100294.8
2022-09-10T04:09:08.658Z,100292.95
2022-09-10T04:10:08.640Z,100292.97
2022-09-10T04:11:09.238Z,100293.3
2022-09-10T04:12:08.679Z,100292.71
2022-09-10T04:13:08.712Z,100291.23
2022-09-10T04:14:08.784Z,100291.72
2022-09-10T04:15:09.114Z,100291.19
2022-09-10T04:16:08.776Z,100292.46
2022-09-10T04:17:08.729Z,100291.22
2022-09-10T04:18:08.820Z,100294.27
2022-09-10T04:19:08.904Z,100292.84
2022-09-10T04:20:09.131Z,100293.66
2022-09-10T04:21:08.850Z,100291.31
2022-09-10T04:22:08.963Z,100294.45
2022-09-10T04:23:08.873Z,100291.8
2022-09-10T04:24:11.631Z,100292.61
2022-09-10T04:25:08.849Z,100295.17
2022-09-10T04:26:18.290Z,100290.3
2022-09-10T04:27:09.945Z,100286.45
2022-09-10T04:28:10.015Z,100295.34
2022-09-10T04:29:09.967Z,100288.98
2022-09-10T04:30:10.509Z,100290.53
2022-09-10T04:31:10.550Z,100290.01
2022-09-10T04:32:10.025Z,100286.95
2022-09-10T04:33:10.214Z,100291.52
2022-09-10T04:34:10.083Z,100289.7
2022-09-10T04:35:10.681Z,100284.89
2022-09-10T04:36:10.403Z,100286.91
2022-09-10T04:37:10.290Z,100286.06
2022-09-10T04:38:10.116Z,100286.31
2022-09-10T04:39:10.175Z,100285.84
2022-09-10T04:40:10.670Z,100283.3
2022-09-10T04:41:10.230Z,100285.47
2022-09-10T04:42:10.174Z,100282.16
2022-09-10T04:43:10.206Z,100286.5
2022-09-10T04:44:10.270Z,100284.47
2022-09-10T04:45:10.474Z,100291.68
2022-09-10T04:46:10.400Z,100282.06
2022-09-10T04:47:10.262Z,100285.94
2022-09-10T04:48:10.293Z,100282.24
2022-09-10T04:49:10.399Z,100285.46
2022-09-10T04:50:10.318Z,100283.06
2022-09-10T04:51:18.291Z,100282.49
2022-09-10T04:52:15.192Z,100282.19
2022-09-10T04:53:15.392Z,100282.34
2022-09-10T04:54:15.098Z,100281.69
2022-09-10T04:55:15.218Z,100278.3
2022-09-10T04:56:15.419Z,100278.81
2022-09-10T04:57:15.092Z,100280.3
2022-09-10T04:58:15.118Z,100278.53
2022-09-10T04:59:15.219Z,100279.66
2022-09-10T05:00:15.554Z,100279.2
2022-09-10T05:01:15.220Z,100275.98
2022-09-10T05:02:15.460Z,100279.8
2022-09-10T05:03:15.242Z,100273.04
2022-09-10T05:04:15.239Z,100272.47
2022-09-10T05:05:15.524Z,100278.62
2022-09-10T05:06:15.255Z,100278.87
2022-09-10T05:07:15.284Z,100279.52
2022-09-10T05:08:15.287Z,100275.7
2022-09-10T05:09:15.921Z,100277.36
2022-09-10T05:10:15.399Z,100278.66
2022-09-10T05:11:15.374Z,100279.26
2022-09-10T05:12:15.359Z,100275.92
2022-09-10T05:13:15.367Z,100273.25
2022-09-10T05:14:15.476Z,100274.14
2022-09-10T05:15:15.372Z,100276.04
2022-09-10T05:16:15.524Z,100272.77
2022-09-10T05:17:15.386Z,100274.44
2022-09-10T05:18:15.806Z,100270.53
2022-09-10T05:19:15.446Z,100269.02
2022-09-10T05:20:15.607Z,100267.76
2022-09-10T05:21:15.500Z,100268.3
2022-09-10T05:22:15.489Z,100267.19
2022-09-10T05:23:15.540Z,100274.17
2022-09-10T05:24:15.742Z,100267.3
2022-09-10T05:25:15.715Z,100263.87
2022-09-10T05:26:15.563Z,100269.78
2022-09-10T05:27:15.597Z,100270.59
2022-09-10T05:28:15.732Z,100268.61
2022-09-10T05:29:15.737Z,100268.59
2022-09-10T05:30:15.629Z,100264.44
2022-09-10T05:31:15.870Z,100270.19
2022-09-10T05:32:15.661Z,100264.44
2022-09-10T05:33:15.993Z,100264.94
2022-09-10T05:34:15.707Z,100271.89
2022-09-10T05:35:15.728Z,100264.24
2022-09-10T05:36:15.802Z,100262.45
2022-09-10T05:37:15.953Z,100260.16
2022-09-10T05:38:15.768Z,100264.39
2022-09-10T05:39:15.790Z,100265.23
2022-09-10T05:40:16.016Z,100263.34
2022-09-10T05:41:15.866Z,100263.61
2022-09-10T05:42:15.982Z,100257.9
2022-09-10T05:43:16.149Z,100260.23
2022-09-10T05:44:15.876Z,100268.91
2022-09-10T05:45:16.071Z,100262.17
2022-09-10T05:46:16.401Z,100265.75
2022-09-10T05:47:15.949Z,100261.58
2022-09-10T05:48:16.036Z,100266.11
2022-09-10T05:49:16.028Z,100263.2
2022-09-10T05:50:16.115Z,100267.53
2022-09-10T05:51:16.378Z,100269.92
2022-09-10T05:52:16.050Z,100266.01
2022-09-10T05:53:16.109Z,100263.81
2022-09-10T05:54:16.327Z,100268.02
2022-09-10T05:55:16.227Z,100270.22
2022-09-10T05:56:16.208Z,100262.91
2022-09-10T05:57:16.258Z,100266.02
2022-09-10T05:58:16.596Z,100260.61
2022-09-10T05:59:16.288Z,100261.1
2022-09-10T06:00:16.379Z,100262.65
2022-09-10T06:01:16.591Z,100263.31
2022-09-10T06:02:21.731Z,100264.01
2022-09-10T06:03:20.543Z,100259.09
2022-09-10T06:04:20.048Z,100262.33
2022-09-10T06:05:20.146Z,100260.48
2022-09-10T06:06:20.061Z,100260.5
2022-09-10T06:07:20.120Z,100260.27
2022-09-10T06:08:20.335Z,100264.44
2022-09-10T06:09:20.121Z,100261.07
2022-09-10T06:10:20.135Z,100262.95
2022-09-10T06:11:20.143Z,100261.41
2022-09-10T06:12:20.156Z,100263.32
2022-09-10T06:13:20.180Z,100260.44
2022-09-10T06:14:20.216Z,100262.25
2022-09-10T06:15:20.574Z,100259.87
2022-09-10T06:16:20.279Z,100264.91
2022-09-10T06:17:20.223Z,100261.98
2022-09-10T06:18:20.615Z,100264.27
2022-09-10T06:19:23.240Z,100261.16
2022-09-10T06:20:20.256Z,100261.25
2022-09-10T06:21:20.309Z,100262.08
2022-09-10T06:22:20.333Z,100264.02
2022-09-10T06:23:20.308Z,100265.78
2022-09-10T06:24:20.394Z,100263.83
2022-09-10T06:25:20.645Z,100265.51
2022-09-10T06:26:20.519Z,100266.03
2022-09-10T06:27:20.397Z,100271.95
2022-09-10T06:28:20.392Z,100272.15
2022-09-10T06:29:20.459Z,100271.47
2022-09-10T06:30:20.445Z,100271.12
2022-09-10T06:31:20.481Z,100274.41
2022-09-10T06:32:20.506Z,100271.91
2022-09-10T06:33:20.524Z,100276.67
2022-09-10T06:34:20.601Z,100268.65
2022-09-10T06:35:20.548Z,100272.72
2022-09-10T06:36:20.544Z,100275.24
2022-09-10T06:37:20.606Z,100267.36
2022-09-10T06:38:20.867Z,100272.41
2022-09-10T06:39:20.679Z,100267.47
2022-09-10T06:40:20.647Z,100269.53
2022-09-10T06:41:20.864Z,100267.5
2022-09-10T06:42:20.668Z,100267.44
2022-09-10T06:43:23.677Z,100265.11
2022-09-10T06:44:20.731Z,100269.48
2022-09-10T06:45:20.750Z,100269.61
2022-09-10T06:48:41.431Z,100267.38
2022-09-10T06:49:24.929Z,100269.64
2022-09-10T06:50:24.928Z,100267.11
2022-09-10T06:51:24.933Z,100266.28
2022-09-10T06:52:24.959Z,100265.65
2022-09-10T06:53:26.068Z,100271.64
2022-09-10T06:54:25.040Z,100265.81
2022-09-10T06:55:24.981Z,100268.53
2022-09-10T06:56:25.023Z,100266.25
2022-09-10T06:57:25.658Z,100268.98
2022-09-10T06:58:25.033Z,100265.27
2022-09-10T06:59:25.035Z,100266.66
2022-09-10T07:00:25.111Z,100262.98
2022-09-10T07:01:25.274Z,100270.78
2022-09-10T07:02:25.107Z,100267.42
2022-09-10T07:03:25.086Z,100267.77
2022-09-10T07:04:25.123Z,100269.19
2022-09-10T07:05:25.409Z,100268.95
2022-09-10T07:06:26.031Z,100265.98
2022-09-10T07:07:25.162Z,100265.96
2022-09-10T07:08:25.202Z,100265.91
2022-09-10T07:09:25.226Z,100264.98
2022-09-10T07:10:25.229Z,100261.69
2022-09-10T07:11:26.073Z,100259.67
2022-09-10T07:12:25.275Z,100264.41
2022-09-10T07:13:25.284Z,100263.89
2022-09-10T07:14:25.324Z,100264
2022-09-10T07:15:25.292Z,100261.05
2022-09-10T07:16:26.334Z,100262.85
2022-09-10T07:17:27.685Z,100262.56
2022-09-10T07:18:27.416Z,100259.71
2022-09-10T07:19:27.402Z,100262.61
2022-09-10T07:20:27.401Z,100265.85
2022-09-10T07:21:27.990Z,100271.15
2022-09-10T07:22:27.436Z,100266.83
2022-09-10T07:23:27.453Z,100264.23
2022-09-10T07:24:27.485Z,100264.94
2022-09-10T07:25:27.486Z,100266.35
2022-09-10T07:26:28.014Z,100268.8
2022-09-10T07:27:27.539Z,100265.09
2022-09-10T07:28:27.575Z,100268.1
2022-09-10T07:29:27.673Z,100267.67
2022-09-10T07:30:28.658Z,100266.86
2022-09-10T07:31:28.917Z,100267.62
2022-09-10T07:32:27.617Z,100265.38
2022-09-10T07:33:27.601Z,100272.12
2022-09-10T07:34:27.644Z,100268.06
2022-09-10T07:35:27.688Z,100266.38
2022-09-10T07:36:28.865Z,100267.12
2022-09-10T07:37:27.725Z,100266.38
2022-09-10T07:38:27.714Z,100265.41
2022-09-10T07:39:27.709Z,100271.1
2022-09-10T07:40:27.732Z,100271.23
2022-09-10T07:41:28.031Z,100266.62
2022-09-10T07:42:27.822Z,100270.73
2022-09-10T07:43:27.926Z,100271.98
2022-09-10T07:44:27.803Z,100266.33
2022-09-10T07:45:27.849Z,100267.77
2022-09-10T07:46:27.843Z,100271.39
2022-09-10T07:47:27.897Z,100266.76
2022-09-10T07:48:27.858Z,100265.64
2022-09-10T07:49:27.900Z,100266.73
2022-09-10T07:50:27.882Z,100265.14
2022-09-10T07:51:29.431Z,100267.11
2022-09-10T07:52:27.924Z,100271.14
2022-09-10T07:53:27.940Z,100266.58
2022-09-10T07:54:27.923Z,100261.43
2022-09-10T07:55:27.921Z,100269.84
2022-09-10T07:56:28.109Z,100267.08
2022-09-10T07:57:27.981Z,100266.78
2022-09-10T07:58:29.372Z,100265.42
2022-09-10T07:59:28.009Z,100262.93
2022-09-10T08:00:28.140Z,100259.23
2022-09-10T08:01:28.091Z,100258.64
2022-09-10T08:02:28.286Z,100261.26
2022-09-10T08:03:28.717Z,100260.12
2022-09-10T08:04:35.896Z,100259.33
2022-09-10T08:05:28.366Z,100254.2
2022-09-10T08:06:28.159Z,100256.68
2022-09-10T08:07:28.342Z,100256.2
2022-09-10T08:08:28.807Z,100256.77
2022-09-10T08:09:28.234Z,100253.09
2022-09-10T08:10:28.226Z,100256.46
2022-09-10T08:11:28.253Z,100258.39
2022-09-10T08:12:28.248Z,100258.56
2022-09-10T08:13:28.319Z,100255.32
2022-09-10T08:14:28.265Z,100257.26
2022-09-10T08:15:28.283Z,100257.69
2022-09-10T08:16:28.296Z,100254.02
2022-09-10T08:17:29.136Z,100254.2
2022-09-10T08:18:29.251Z,100253.41
2022-09-10T08:19:28.343Z,100255.7
2022-09-10T08:20:28.370Z,100252.98
2022-09-10T08:21:28.329Z,100251.72
2022-09-10T08:22:28.356Z,100249.92
2022-09-10T08:23:28.934Z,100249.03
2022-09-10T08:24:28.450Z,100254.7
2022-09-10T08:25:28.448Z,100250.41
2022-09-10T08:26:28.506Z,100247.55
2022-09-10T08:27:28.435Z,100249.41
2022-09-10T08:28:28.449Z,100251.77
2022-09-10T08:29:28.469Z,100253.67
2022-09-10T08:30:28.501Z,100250.57
2022-09-10T08:31:28.857Z,100249.36
2022-09-10T08:32:28.500Z,100250.55
2022-09-10T08:33:28.897Z,100252.67
2022-09-10T08:34:28.546Z,100246.95
2022-09-10T08:35:28.590Z,100246.17
2022-09-10T08:36:28.693Z,100249.45
2022-09-10T08:37:28.547Z,100248.07
2022-09-10T08:38:33.028Z,100245.3
2022-09-10T08:39:29.235Z,100241.08
2022-09-10T08:40:29.394Z,100244.65
2022-09-10T08:42:44.712Z,100242.91
2022-09-10T08:45:39.352Z,100247.5
2022-09-10T08:46:45.093Z,100240.52
2022-09-10T08:48:45.198Z,100242.23
2022-09-10T08:49:51.923Z,100241.02
2022-09-10T08:50:51.959Z,100238.11
2022-09-10T08:51:50.586Z,100242.57
2022-09-10T08:52:57.277Z,100239.81
2022-09-10T08:53:57.034Z,100241.43
2022-09-10T08:56:01.929Z,100236.17
2022-09-10T08:57:00.157Z,100234.7
2022-09-10T08:58:12.812Z,100235.05
2022-09-10T09:00:03.603Z,100233.73
2022-09-10T09:01:03.486Z,100234.89
2022-09-10T09:02:14.502Z,100230.88
2022-09-10T09:07:17.021Z,100231.02
2022-09-10T09:08:18.861Z,100229.73
2022-09-10T09:09:16.106Z,100230
2022-09-10T09:15:35.764Z,100212.77
2022-09-10T09:16:41.704Z,100214.95
2022-09-10T09:17:37.872Z,100211.38
2022-09-10T09:24:13.538Z,100216.97
2022-09-10T09:24:55.528Z,100207.83
2022-09-10T09:26:01.405Z,100206.51
2022-09-10T09:26:56.179Z,100201.62
2022-09-10T09:27:54.737Z,100204.65
2022-09-10T09:28:56.953Z,100197.41
2022-09-10T09:29:56.410Z,100205.9
2022-09-10T09:30:54.364Z,100205.47
2022-09-10T09:31:57.108Z,100204.17
2022-09-10T09:32:55.488Z,100204.43
2022-09-10T09:33:56.009Z,100205.35
2022-09-10T09:34:54.785Z,100206.86
2022-09-10T09:36:01.455Z,100202.38
2022-09-10T09:37:01.149Z,100200.08
2022-09-10T09:39:03.611Z,100198.88
2022-09-10T09:40:07.987Z,100200.06
2022-09-10T09:41:12.115Z,100205.14
2022-09-10T09:42:17.557Z,100198.98
2022-09-10T09:44:16.663Z,100203.25
2022-09-10T09:45:23.956Z,100202.13
2022-09-10T09:46:17.800Z,100204.78
2022-09-10T09:47:15.656Z,100201.67
2022-09-10T09:48:16.701Z,100201.3
2022-09-10T09:49:16.178Z,100197.95
2022-09-10T09:50:16.084Z,100195.78
2022-09-10T09:51:17.523Z,100190.66
2022-09-10T09:52:23.479Z,100192.5
2022-09-10T09:53:23.993Z,100192.26
2022-09-10T09:56:30.097Z,100195.95
2022-09-10T09:57:26.282Z,100192.26
2022-09-10T09:58:27.314Z,100193.06
2022-09-10T09:59:27.913Z,100193.62
2022-09-10T10:00:34.315Z,100192.95
2022-09-10T10:01:31.190Z,100189.85
2022-09-10T10:02:30.551Z,100188.27
2022-09-10T10:03:31.919Z,100188.3
2022-09-10T10:04:30.818Z,100185.52
2022-09-10T10:05:30.573Z,100183.38
2022-09-10T10:06:32.288Z,100186.91
2022-09-10T10:07:31.963Z,100185.77
2022-09-10T10:08:38.014Z,100184.2
2022-09-10T10:09:37.422Z,100180.3
2022-09-10T10:10:34.261Z,100185.73
2022-09-10T10:12:41.932Z,100180.27
2022-09-10T10:13:39.563Z,100178.45
2022-09-10T10:14:39.586Z,100180.41
2022-09-10T10:15:39.402Z,100177.99
2022-09-10T10:16:38.158Z,100173.11
2022-09-10T10:17:39.408Z,100177
2022-09-10T10:18:38.239Z,100172.86
2022-09-10T10:19:38.900Z,100174.53
2022-09-10T10:20:38.853Z,100169.28
2022-09-10T10:21:38.210Z,100168.25
2022-09-10T10:22:39.595Z,100169.41
2022-09-10T10:23:38.551Z,100171.06
2022-09-10T10:24:38.260Z,100165.61
2022-09-10T10:25:38.737Z,100163.41
2022-09-10T10:26:38.286Z,100164.72
2022-09-10T10:27:42.162Z,100162.7
2022-09-10T10:28:38.457Z,100166.91
2022-09-10T10:29:38.472Z,100168.98
2022-09-10T10:30:38.395Z,100165.47
2022-09-10T10:31:42.894Z,100168.3
2022-09-10T10:46:19.494Z,100143.27
2022-09-10T10:50:30.639Z,100137.05
2022-09-10T10:51:36.276Z,100134.89
2022-09-10T10:54:37.822Z,100137.4
2022-09-10T10:56:37.726Z,100129.8
2022-09-10T10:59:53.622Z,100123.36
2022-09-10T11:01:49.891Z,100116.42
2022-09-10T11:02:52.634Z,100118.09
2022-09-10T11:04:55.019Z,100117.89
2022-09-10T11:06:07.586Z,100115.33
2022-09-10T11:06:58.300Z,100111.12
2022-09-10T11:07:55.521Z,100101.23
2022-09-10T11:08:59.012Z,100103.88
2022-09-10T11:10:03.713Z,100105.06
2022-09-10T11:11:03.641Z,100107.59
2022-09-10T11:12:06.497Z,100099.22
2022-09-10T11:13:06.008Z,100097.9
2022-09-10T11:15:18.818Z,100095.92
2022-09-10T11:16:19.102Z,100092.33
2022-09-10T11:17:24.137Z,100090.78
2022-09-10T11:19:19.074Z,100088.73
2022-09-10T11:20:29.982Z,100090.53
2022-09-10T11:21:28.592Z,100090.55
2022-09-10T11:22:27.663Z,100091.54
2022-09-10T11:23:33.733Z,100093.05
2022-09-10T11:24:28.792Z,100090.44
2022-09-10T11:25:27.598Z,100085.17
2022-09-10T11:26:38.056Z,100090.77
2022-09-10T11:27:39.900Z,100093.17
2022-09-10T11:28:35.933Z,100084.42
2022-09-10T11:30:38.828Z,100090.16
2022-09-10T11:31:42.620Z,100088.92
2022-09-10T11:36:57.569Z,100076.14
2022-09-10T11:39:03.930Z,100076.4
2022-09-10T11:40:03.274Z,100073.39
2022-09-10T11:42:06.512Z,100073.8
2022-09-10T11:43:05.494Z,100063.78
2022-09-10T11:45:06.953Z,100066.77
2022-09-10T11:47:07.977Z,100064.88
2022-09-10T11:52:21.686Z,100060.28
2022-09-10T11:53:21.216Z,100056.02
2022-09-10T11:54:25.782Z,100058.81
2022-09-10T11:55:27.270Z,100056.92
2022-09-10T12:00:45.126Z,100050.34
2022-09-10T12:13:13.659Z,100040.22
2022-09-10T12:14:14.897Z,100038.19
2022-09-10T12:16:23.037Z,100034.03
2022-09-10T12:17:20.280Z,100033.92
2022-09-10T12:18:19.317Z,100032.2
2022-09-10T12:19:23.043Z,100028.2
2022-09-10T12:20:27.519Z,100030
2022-09-10T12:22:30.513Z,100028.73
2022-09-10T12:23:28.338Z,100023.05
2022-09-10T12:24:28.882Z,100024.06
2022-09-10T12:25:33.658Z,100025.91
2022-09-10T12:26:40.177Z,100024.56
2022-09-10T12:29:38.773Z,100020.3
2022-09-10T12:32:43.045Z,100018.41
2022-09-10T12:34:44.239Z,100013.94
2022-09-10T12:37:48.124Z,100013.29
2022-09-10T12:39:49.479Z,100006.44
2022-09-10T12:40:49.397Z,100003.03
2022-09-10T12:42:50.529Z,100007.75
2022-09-10T12:44:51.383Z,100004.84
2022-09-10T12:47:54.550Z,100007.72
2022-09-10T12:49:57.559Z,100000.9
2022-09-10T12:50:58.363Z,100004.94
2022-09-10T12:51:59.714Z,99996.97
2022-09-10T13:00:22.336Z,99990.73
2022-09-10T13:03:22.833Z,99982.63
2022-09-10T13:04:25.490Z,99984.17
2022-09-10T13:05:34.252Z,99983.83
2022-09-10T13:09:31.302Z,99977.08
2022-09-10T13:10:30.226Z,99970.39
2022-09-10T13:11:34.090Z,99978.16
2022-09-10T13:12:30.868Z,99976.23
2022-09-10T13:14:35.306Z,99973.7
2022-09-10T13:15:38.134Z,99971.5
2022-09-10T13:16:39.857Z,99978.41
2022-09-10T13:17:37.285Z,99977.57
2022-09-10T13:18:36.841Z,99977.39
2022-09-10T13:20:37.575Z,99974.38
2022-09-10T13:23:45.971Z,99972.81
2022-09-10T13:25:47.682Z,99981.89
2022-09-10T13:26:48.065Z,99973.2
2022-09-10T13:27:47.107Z,99964.38
2022-09-10T13:31:59.363Z,99954.36
2022-09-10T13:32:58.483Z,99959.16
2022-09-10T13:36:05.212Z,99959.92
2022-09-10T13:45:26.288Z,99948.27
2022-09-10T13:47:33.737Z,99946.77
2022-09-10T13:50:44.959Z,99942.45
2022-09-10T13:51:49.153Z,99946.78
2022-09-10T13:52:43.330Z,99946.88
2022-09-10T13:53:42.310Z,99942.3
2022-09-10T13:54:47.324Z,99934.96
2022-09-10T13:56:46.716Z,99935.58
2022-09-10T13:57:48.198Z,99934.97
2022-09-10T13:58:50.400Z,99934.81
2022-09-10T13:59:51.392Z,99932.44
2022-09-10T14:01:54.826Z,99925.27
2022-09-10T14:02:53.104Z,99929.95
2022-09-10T14:03:51.260Z,99924.05
2022-09-10T14:04:51.340Z,99929.55
2022-09-10T14:06:56.723Z,99920.64
2022-09-10T14:07:55.689Z,99918.45
2022-09-10T14:08:57.049Z,99914.83
2022-09-10T14:09:55.964Z,99916.97
2022-09-10T14:11:55.236Z,99917.88
2022-09-10T14:12:54.789Z,99915.17
2022-09-10T14:13:59.133Z,99915.05
2022-09-10T14:14:57.231Z,99913.55
2022-09-10T14:15:57.261Z,99913.34
2022-09-10T14:17:59.167Z,99913.68
2022-09-10T14:19:01.051Z,99913.61
2022-09-10T14:20:00.138Z,99906.39
2022-09-10T14:20:59.554Z,99909.2
2022-09-10T14:21:59.106Z,99907.8
2022-09-10T14:23:03.279Z,99905.89
2022-09-10T14:23:59.509Z,99902.59
2022-09-10T14:25:00.185Z,99899.53
2022-09-10T14:38:35.647Z,99902.36
2022-09-10T14:39:33.399Z,99908.2